Time;durP1;ratioP1;P1;durP2;ratioP2;P2;SDS_P1;SDS_P2;PMS_P1;PMS_P2;Temp;Humidity;BMP_temperature;BMP_pressure;BME280_temperature;BME280_humidity;BME280_pressure;Samples;Min_cycle;Max_cycle;Signal;HPM_P1;HPM_P2
2023/09/09 00:02:24;;;;;;;0.10;0.10;;;;;;;;;;5015059;28;20041;-91
2023/09/09 00:04:52;;;;;;;0.10;0.10;;;;;;;;;;5015899;28;20081;-92
2023/09/09 00:07:18;;;;;;;0.10;0.10;;;;;;;;;;4999244;28;20038;-92
2023/09/09 00:09:44;;;;;;;0.10;0.10;;;;;;;;;;4998625;28;20045;-92
2023/09/09 00:12:10;;;;;;;0.10;0.10;;;;;;;;;;4998914;28;20053;-93
2023/09/09 00:14:37;;;;;;;0.10;0.10;;;;;;;;;;5015007;28;20390;-92
2023/09/09 00:17:03;;;;;;;0.10;0.10;;;;;;;;;;5014760;28;20047;-93
2023/09/09 00:19:34;;;;;;;0.10;0.10;;;;;;;;;;4998131;28;20050;-93
2023/09/09 00:22:04;;;;;;;0.10;0.10;;;;;;;;;;4999243;28;20046;-93
2023/09/09 00:24:32;;;;;;;0.10;0.10;;;;;;;;;;4998350;28;20124;-92
2023/09/09 00:26:59;;;;;;;0.10;0.10;;;;;;;;;;4998739;28;20121;-93
2023/09/09 00:29:26;;;;;;;0.10;0.10;;;;;;;;;;5014337;28;20046;-93
2023/09/09 00:31:52;;;;;;;0.10;0.10;;;;;;;;;;5014382;28;20285;-93
2023/09/09 00:34:17;;;;;;;0.10;0.10;;;;;;;;;;4997521;28;20474;-93
2023/09/09 00:36:43;;;;;;;0.10;0.10;;;;;;;;;;4997955;28;20225;-93
2023/09/09 00:39:09;;;;;;;0.10;0.10;;;;;;;;;;4997972;28;20455;-93
2023/09/09 00:41:35;;;;;;;0.10;0.10;;;;;;;;;;4998221;28;20037;-92
2023/09/09 00:44:01;;;;;;;0.15;0.15;;;;;;;;;;5014314;28;20088;-93
2023/09/09 00:46:27;;;;;;;0.20;0.20;;;;;;;;;;5013978;28;20485;-92
2023/09/09 00:48:53;;;;;;;1.27;0.82;;;;;;;;;;4997752;28;20460;-92
2023/09/09 00:51:19;;;;;;;1.17;1.10;;;;;;;;;;5013934;28;20049;-92
2023/09/09 00:53:45;;;;;;;0.98;0.95;;;;;;;;;;5013655;28;20042;-92
2023/09/09 00:56:11;;;;;;;0.90;0.88;;;;;;;;;;5014139;28;20038;-92
2023/09/09 00:58:37;;;;;;;0.80;0.80;;;;;;;;;;5013951;28;20045;-92
2023/09/09 01:01:03;;;;;;;0.50;0.50;;;;;;;;;;5013979;28;20116;-92
2023/09/09 01:03:30;;;;;;;4.47;1.27;;;;;;;;;;4997443;28;20139;-93
2023/09/09 01:05:57;;;;;;;2.17;1.27;;;;;;;;;;4997404;28;20038;-93
2023/09/09 01:08:26;;;;;;;1.15;1.13;;;;;;;;;;4997730;28;20132;-92
2023/09/09 01:10:52;;;;;;;0.80;0.80;;;;;;;;;;4997356;28;20045;-93
2023/09/09 01:13:18;;;;;;;0.30;0.30;;;;;;;;;;4997322;28;20100;-93
2023/09/09 01:15:44;;;;;;;0.30;0.30;;;;;;;;;;4997280;28;20046;-92
2023/09/09 01:18:10;;;;;;;0.10;0.10;;;;;;;;;;4996944;28;20382;-92
2023/09/09 01:20:36;;;;;;;0.22;0.22;;;;;;;;;;4997622;28;20046;-93
2023/09/09 01:23:02;;;;;;;0.10;0.10;;;;;;;;;;5013072;28;20512;-92
2023/09/09 01:25:28;;;;;;;2.13;0.68;;;;;;;;;;5012967;28;20405;-92
2023/09/09 01:27:54;;;;;;;0.65;0.52;;;;;;;;;;4997140;28;20038;-92
2023/09/09 01:30:20;;;;;;;0.82;0.38;;;;;;;;;;4997210;28;20041;-92
2023/09/09 01:32:47;;;;;;;0.95;0.70;;;;;;;;;;5013544;28;20045;-92
2023/09/09 01:35:13;;;;;;;0.20;0.20;;;;;;;;;;4996679;28;20466;-92
2023/09/09 01:37:39;;;;;;;0.20;0.20;;;;;;;;;;4996703;28;20124;-93
2023/09/09 01:40:09;;;;;;;0.20;0.20;;;;;;;;;;5013277;28;20044;-92
2023/09/09 01:42:36;;;;;;;0.10;0.10;;;;;;;;;;5013745;28;20485;-92
2023/09/09 01:45:01;;;;;;;0.13;0.13;;;;;;;;;;5012336;28;20038;-92
2023/09/09 01:47:27;;;;;;;0.25;0.25;;;;;;;;;;4996950;28;20036;-92
2023/09/09 01:49:56;;;;;;;0.20;0.20;;;;;;;;;;5012854;28;20042;-93
2023/09/09 01:52:22;;;;;;;0.32;0.32;;;;;;;;;;4996430;28;20133;-93
2023/09/09 01:54:48;;;;;;;0.13;0.13;;;;;;;;;;4996662;28;20037;-92
2023/09/09 01:57:16;;;;;;;0.10;0.10;;;;;;;;;;4996495;28;20394;-92
2023/09/09 01:59:43;;;;;;;0.10;0.10;;;;;;;;;;4996699;28;20049;-92
2023/09/09 02:02:09;;;;;;;0.10;0.10;;;;;;;;;;4996708;28;20042;-92
2023/09/09 02:04:35;;;;;;;0.10;0.10;;;;;;;;;;4996209;28;20044;-92
2023/09/09 02:07:01;;;;;;;0.10;0.10;;;;;;;;;;4996379;28;20034;-92
2023/09/09 02:09:27;;;;;;;0.10;0.10;;;;;;;;;;4996230;28;20033;-92
2023/09/09 02:11:53;;;;;;;0.10;0.10;;;;;;;;;;5012475;28;20049;-92
2023/09/09 02:14:19;;;;;;;0.22;0.22;;;;;;;;;;5012647;28;20073;-92
2023/09/09 02:16:45;;;;;;;0.10;0.10;;;;;;;;;;4996377;28;20077;-92
2023/09/09 02:19:11;;;;;;;0.20;0.20;;;;;;;;;;5011666;28;20058;-92
2023/09/09 02:21:37;;;;;;;0.08;0.08;;;;;;;;;;5012585;28;20077;-92
2023/09/09 02:24:03;;;;;;;0.10;0.10;;;;;;;;;;5012579;28;20077;-92
2023/09/09 02:26:29;;;;;;;0.10;0.10;;;;;;;;;;5012176;28;20433;-93
2023/09/09 02:28:55;;;;;;;0.20;0.20;;;;;;;;;;5013652;28;20050;-91
2023/09/09 02:31:23;;;;;;;0.10;0.10;;;;;;;;;;4995710;28;20485;-92
2023/09/09 02:33:49;;;;;;;0.00;0.00;;;;;;;;;;4996002;28;20049;-93
2023/09/09 02:36:15;;;;;;;0.10;0.10;;;;;;;;;;5012142;28;20500;-93
2023/09/09 02:38:41;;;;;;;0.10;0.10;;;;;;;;;;5012209;28;20390;-92
2023/09/09 02:41:07;;;;;;;0.10;0.10;;;;;;;;;;4995820;28;20040;-92
2023/09/09 02:43:33;;;;;;;0.20;0.20;;;;;;;;;;5013444;28;20060;-92
2023/09/09 02:45:59;;;;;;;0.10;0.10;;;;;;;;;;4995782;28;20041;-93
2023/09/09 02:48:26;;;;;;;0.10;0.10;;;;;;;;;;4995524;28;20523;-93
2023/09/09 02:50:52;;;;;;;0.10;0.10;;;;;;;;;;5013387;28;20050;-92
2023/09/09 02:53:18;;;;;;;0.10;0.10;;;;;;;;;;5011809;28;20046;-92
2023/09/09 02:55:44;;;;;;;0.10;0.10;;;;;;;;;;5011530;28;20038;-93
2023/09/09 02:58:12;;;;;;;0.15;0.15;;;;;;;;;;4995619;28;20058;-93
2023/09/09 03:00:39;;;;;;;0.10;0.10;;;;;;;;;;4995401;28;20042;-92
2023/09/09 03:03:05;;;;;;;0.10;0.10;;;;;;;;;;5011740;28;20038;-92
2023/09/09 03:05:35;;;;;;;0.10;0.10;;;;;;;;;;5011796;28;20042;-92
2023/09/09 03:08:01;;;;;;;0.10;0.10;;;;;;;;;;4995483;28;20042;-93
2023/09/09 03:10:27;;;;;;;0.10;0.10;;;;;;;;;;4995425;28;20038;-93
2023/09/09 03:12:56;;;;;;;0.10;0.10;;;;;;;;;;4995647;28;20151;-92
2023/09/09 03:15:22;;;;;;;0.10;0.10;;;;;;;;;;5011980;28;20038;-92
2023/09/09 03:17:48;;;;;;;0.10;0.10;;;;;;;;;;4995493;28;20073;-93
2023/09/09 03:20:14;;;;;;;0.13;0.13;;;;;;;;;;4995025;28;20085;-93
2023/09/09 03:22:40;;;;;;;0.10;0.10;;;;;;;;;;5011698;28;20042;-93
2023/09/09 03:25:08;;;;;;;0.10;0.10;;;;;;;;;;4995532;28;20045;-92
2023/09/09 03:27:34;;;;;;;0.10;0.10;;;;;;;;;;4995558;28;20046;-92
2023/09/09 03:30:00;;;;;;;0.10;0.10;;;;;;;;;;4995396;28;20048;-92
2023/09/09 03:32:26;;;;;;;0.20;0.20;;;;;;;;;;5011759;28;20050;-92
2023/09/09 03:34:53;;;;;;;0.20;0.20;;;;;;;;;;4995185;28;20045;-92
2023/09/09 03:37:20;;;;;;;0.10;0.10;;;;;;;;;;4995429;28;20136;-93
2023/09/09 03:39:46;;;;;;;0.10;0.10;;;;;;;;;;5011982;28;20042;-92
2023/09/09 03:42:12;;;;;;;0.10;0.10;;;;;;;;;;4994938;28;20464;-93
2023/09/09 03:44:38;;;;;;;0.13;0.13;;;;;;;;;;4994969;28;20033;-92
2023/09/09 03:47:04;;;;;;;0.10;0.10;;;;;;;;;;5011438;28;20044;-92
2023/09/09 03:49:30;;;;;;;0.10;0.10;;;;;;;;;;4995119;28;20046;-92
2023/09/09 03:51:56;;;;;;;0.10;0.10;;;;;;;;;;5011319;28;20042;-92
2023/09/09 03:54:23;;;;;;;0.13;0.13;;;;;;;;;;5011349;28;20129;-92
2023/09/09 03:56:50;;;;;;;0.55;0.55;;;;;;;;;;5011781;28;20520;-92
2023/09/09 03:59:16;;;;;;;0.15;0.15;;;;;;;;;;4995256;28;20358;-92
2023/09/09 04:01:42;;;;;;;0.10;0.10;;;;;;;;;;5011604;28;20049;-92
2023/09/09 04:04:08;;;;;;;0.10;0.10;;;;;;;;;;4994683;28;20527;-92
2023/09/09 04:06:33;;;;;;;0.10;0.10;;;;;;;;;;4995172;28;20038;-93
2023/09/09 04:08:59;;;;;;;0.10;0.10;;;;;;;;;;5013667;28;20053;-92
2023/09/09 04:11:25;;;;;;;0.10;0.10;;;;;;;;;;4998432;28;20481;-92
2023/09/09 04:13:52;;;;;;;0.10;0.10;;;;;;;;;;4998553;28;20037;-92
2023/09/09 04:16:18;;;;;;;0.10;0.10;;;;;;;;;;5014887;28;20410;-93
2023/09/09 04:18:44;;;;;;;0.20;0.20;;;;;;;;;;4998293;28;20110;-93
2023/09/09 04:21:10;;;;;;;0.10;0.10;;;;;;;;;;4998479;28;20393;-92
2023/09/09 04:23:36;;;;;;;0.10;0.10;;;;;;;;;;5014035;28;20065;-92
2023/09/09 04:26:02;;;;;;;0.10;0.10;;;;;;;;;;4998082;28;20038;-92
2023/09/09 04:28:27;;;;;;;0.10;0.10;;;;;;;;;;4998482;28;20046;-93
2023/09/09 04:30:53;;;;;;;0.10;0.10;;;;;;;;;;4998069;28;20125;-92
2023/09/09 04:33:19;;;;;;;0.20;0.20;;;;;;;;;;4997972;28;20049;-91
2023/09/09 04:35:45;;;;;;;0.10;0.10;;;;;;;;;;4998135;28;20471;-91
2023/09/09 04:38:11;;;;;;;0.10;0.10;;;;;;;;;;4997981;28;20045;-92
2023/09/09 04:40:38;;;;;;;0.20;0.20;;;;;;;;;;4997759;28;20477;-92
2023/09/09 04:43:04;;;;;;;0.10;0.10;;;;;;;;;;4998042;28;20097;-93
2023/09/09 04:45:30;;;;;;;0.20;0.20;;;;;;;;;;4997756;28;20405;-93
2023/09/09 04:47:56;;;;;;;0.10;0.10;;;;;;;;;;4997979;28;20034;-93
2023/09/09 04:50:22;;;;;;;0.10;0.10;;;;;;;;;;4997903;28;20041;-92
2023/09/09 04:52:48;;;;;;;0.10;0.10;;;;;;;;;;4997907;28;20045;-92
2023/09/09 04:55:15;;;;;;;0.10;0.10;;;;;;;;;;5014305;28;20112;-92
2023/09/09 04:57:41;;;;;;;0.10;0.10;;;;;;;;;;4997796;28;20092;-92
2023/09/09 05:00:08;;;;;;;0.10;0.10;;;;;;;;;;4997257;28;20049;-92
2023/09/09 05:02:34;;;;;;;0.10;0.10;;;;;;;;;;5013323;28;20057;-93
2023/09/09 05:05:04;;;;;;;0.10;0.10;;;;;;;;;;4997289;28;20386;-92
2023/09/09 05:07:31;;;;;;;0.10;0.10;;;;;;;;;;5030238;28;20048;-93
2023/09/09 05:09:57;;;;;;;0.10;0.10;;;;;;;;;;5013930;28;20041;-92
2023/09/09 05:12:23;;;;;;;0.10;0.10;;;;;;;;;;4997570;28;20045;-92
2023/09/09 05:14:49;;;;;;;0.10;0.10;;;;;;;;;;5013878;28;20053;-93
2023/09/09 05:17:15;;;;;;;0.10;0.10;;;;;;;;;;4997059;28;20073;-92
2023/09/09 05:19:41;;;;;;;0.10;0.10;;;;;;;;;;5013175;28;20496;-92
2023/09/09 05:22:07;;;;;;;0.10;0.10;;;;;;;;;;5013387;28;20201;-93
2023/09/09 05:24:33;;;;;;;0.10;0.10;;;;;;;;;;4997043;28;20052;-92
2023/09/09 05:26:59;;;;;;;0.10;0.10;;;;;;;;;;4997514;28;20057;-92
2023/09/09 05:29:25;;;;;;;0.10;0.10;;;;;;;;;;5013457;28;20444;-92
2023/09/09 05:31:51;;;;;;;0.30;0.30;;;;;;;;;;4996987;28;20063;-92
2023/09/09 05:34:17;;;;;;;0.10;0.10;;;;;;;;;;4996915;28;20041;-92
2023/09/09 05:36:43;;;;;;;0.10;0.10;;;;;;;;;;5012999;28;20049;-92
2023/09/09 05:39:09;;;;;;;0.10;0.10;;;;;;;;;;4996947;28;20081;-93
2023/09/09 05:41:36;;;;;;;0.10;0.10;;;;;;;;;;4996971;28;20042;-92
2023/09/09 05:44:02;;;;;;;0.10;0.10;;;;;;;;;;4996521;28;20105;-91
2023/09/09 05:46:28;;;;;;;0.17;0.17;;;;;;;;;;4996282;28;20038;-93
2023/09/09 05:48:56;;;;;;;0.10;0.10;;;;;;;;;;4996748;28;20116;-92
2023/09/09 05:51:22;;;;;;;0.10;0.10;;;;;;;;;;5013614;28;20046;-92
2023/09/09 05:53:48;;;;;;;0.10;0.10;;;;;;;;;;5013080;28;20042;-92
2023/09/09 05:56:14;;;;;;;0.10;0.10;;;;;;;;;;4996399;28;20045;-93
2023/09/09 05:58:40;;;;;;;0.10;0.10;;;;;;;;;;4996462;28;20046;-92
2023/09/09 06:01:06;;;;;;;0.10;0.10;;;;;;;;;;5012867;28;20042;-93
2023/09/09 06:03:35;;;;;;;0.10;0.10;;;;;;;;;;5012700;28;20040;-92
2023/09/09 06:06:02;;;;;;;0.20;0.20;;;;;;;;;;4996605;28;20044;-91
2023/09/09 06:08:28;;;;;;;0.63;0.22;;;;;;;;;;4996377;28;20073;-93
2023/09/09 06:10:54;;;;;;;0.10;0.10;;;;;;;;;;5013042;28;20065;-92
2023/09/09 06:13:20;;;;;;;0.10;0.10;;;;;;;;;;4996495;28;20161;-92
2023/09/09 06:15:46;;;;;;;0.10;0.10;;;;;;;;;;4996214;28;20400;-92
2023/09/09 06:18:12;;;;;;;0.10;0.10;;;;;;;;;;4996109;28;20046;-92
2023/09/09 06:20:38;;;;;;;0.10;0.10;;;;;;;;;;4996445;28;20153;-92
2023/09/09 06:23:04;;;;;;;0.10;0.10;;;;;;;;;;4995902;28;20050;-92
2023/09/09 06:25:32;;;;;;;0.10;0.10;;;;;;;;;;5012351;28;20087;-93
2023/09/09 06:27:58;;;;;;;0.10;0.10;;;;;;;;;;5011669;28;20033;-93
2023/09/09 06:30:24;;;;;;;0.10;0.10;;;;;;;;;;4995811;28;20048;-93
2023/09/09 06:32:50;;;;;;;0.10;0.10;;;;;;;;;;5012142;28;20250;-93
2023/09/09 06:35:16;;;;;;;0.10;0.10;;;;;;;;;;4995564;28;20042;-93
2023/09/09 06:37:42;;;;;;;0.20;0.20;;;;;;;;;;4995709;28;20552;-91
2023/09/09 06:40:10;;;;;;;0.10;0.10;;;;;;;;;;4996040;28;20049;-91
2023/09/09 06:42:36;;;;;;;0.10;0.10;;;;;;;;;;5012044;28;20049;-90
2023/09/09 06:45:04;;;;;;;0.10;0.10;;;;;;;;;;5012108;28;20393;-91
2023/09/09 06:47:30;;;;;;;0.10;0.10;;;;;;;;;;4996365;28;20041;-91
2023/09/09 06:49:56;;;;;;;0.10;0.10;;;;;;;;;;5012143;28;20048;-91
2023/09/09 06:52:22;;;;;;;0.20;0.20;;;;;;;;;;4996032;28;20212;-91
2023/09/09 06:54:48;;;;;;;0.20;0.20;;;;;;;;;;5011758;28;20537;-91
2023/09/09 06:57:14;;;;;;;0.20;0.20;;;;;;;;;;5028145;28;20500;-91
2023/09/09 06:59:40;;;;;;;0.15;0.15;;;;;;;;;;5012634;28;20064;-92
2023/09/09 07:02:07;;;;;;;0.10;0.10;;;;;;;;;;5012334;28;20042;-91
2023/09/09 07:04:33;;;;;;;0.10;0.10;;;;;;;;;;5011657;28;20524;-92
2023/09/09 07:06:59;;;;;;;0.10;0.10;;;;;;;;;;5011426;28;20038;-92
2023/09/09 07:09:25;;;;;;;0.20;0.20;;;;;;;;;;4994976;28;20038;-92
2023/09/09 07:11:51;;;;;;;0.20;0.20;;;;;;;;;;4995240;28;20041;-92
2023/09/09 07:14:17;;;;;;;0.10;0.10;;;;;;;;;;5011362;28;20402;-92
2023/09/09 07:16:43;;;;;;;0.22;0.22;;;;;;;;;;5011777;28;20116;-92
2023/09/09 07:19:09;;;;;;;0.15;0.15;;;;;;;;;;4994807;28;20402;-92
2023/09/09 07:21:35;;;;;;;0.20;0.20;;;;;;;;;;4994954;28;20046;-92
2023/09/09 07:24:01;;;;;;;0.20;0.20;;;;;;;;;;5012673;28;20034;-92
2023/09/09 07:26:27;;;;;;;0.30;0.30;;;;;;;;;;5011565;28;20033;-93
2023/09/09 07:28:53;;;;;;;0.43;0.43;;;;;;;;;;4995235;28;20049;-93
2023/09/09 07:31:19;;;;;;;0.30;0.30;;;;;;;;;;5011711;28;20049;-92
2023/09/09 07:33:46;;;;;;;0.20;0.20;;;;;;;;;;5011582;28;20045;-92
2023/09/09 07:36:12;;;;;;;0.20;0.20;;;;;;;;;;5011438;28;20448;-93
2023/09/09 07:38:38;;;;;;;0.20;0.20;;;;;;;;;;5011330;28;20042;-92
2023/09/09 07:41:04;;;;;;;0.20;0.20;;;;;;;;;;4995199;28;20034;-92
2023/09/09 07:43:30;;;;;;;0.25;0.25;;;;;;;;;;4996680;28;20069;-92
2023/09/09 07:45:56;;;;;;;0.20;0.20;;;;;;;;;;4998644;28;20034;-93
2023/09/09 07:48:22;;;;;;;0.20;0.20;;;;;;;;;;4998990;28;20375;-92
2023/09/09 07:50:52;;;;;;;0.25;0.25;;;;;;;;;;4998758;28;20129;-93
2023/09/09 07:53:18;;;;;;;0.30;0.30;;;;;;;;;;4998629;28;20073;-93
2023/09/09 07:55:44;;;;;;;0.32;0.20;;;;;;;;;;4998547;28;20563;-92
2023/09/09 07:58:11;;;;;;;0.50;0.50;;;;;;;;;;5014691;28;20118;-92
2023/09/09 08:00:39;;;;;;;0.28;0.28;;;;;;;;;;5014866;28;20042;-93
2023/09/09 08:03:06;;;;;;;0.50;0.50;;;;;;;;;;5014704;28;20034;-93
2023/09/09 08:05:32;;;;;;;0.30;0.30;;;;;;;;;;5014569;28;20159;-94
2023/09/09 08:07:59;;;;;;;0.30;0.30;;;;;;;;;;5031217;28;20038;-93
2023/09/09 08:10:25;;;;;;;0.35;0.35;;;;;;;;;;4998431;28;20104;-93
2023/09/09 08:12:51;;;;;;;0.50;0.50;;;;;;;;;;4997959;28;20044;-92
2023/09/09 08:15:17;;;;;;;0.20;0.20;;;;;;;;;;4998227;28;20044;-93
2023/09/09 08:17:43;;;;;;;0.20;0.20;;;;;;;;;;4997944;28;20129;-93
2023/09/09 08:20:09;;;;;;;0.20;0.20;;;;;;;;;;4997677;28;20112;-93
2023/09/09 08:22:39;;;;;;;0.20;0.20;;;;;;;;;;4997912;28;20045;-93
2023/09/09 08:25:05;;;;;;;0.30;0.30;;;;;;;;;;5014379;28;20038;-93
2023/09/09 08:27:31;;;;;;;0.20;0.20;;;;;;;;;;4998545;28;20381;-94
2023/09/09 08:29:57;;;;;;;0.20;0.20;;;;;;;;;;5014643;28;20089;-93
2023/09/09 08:32:24;;;;;;;0.20;0.20;;;;;;;;;;5014269;28;20073;-93
2023/09/09 08:34:54;;;;;;;0.35;0.35;;;;;;;;;;4997519;28;20052;-94
2023/09/09 08:37:20;;;;;;;0.30;0.30;;;;;;;;;;4998008;28;20366;-93
2023/09/09 08:39:46;;;;;;;0.32;0.32;;;;;;;;;;4997722;28;20077;-93
2023/09/09 08:42:31;;;;;;;0.30;0.30;;;;;;;;;;5014183;28;20140;-93
2023/09/09 08:45:02;;;;;;;0.20;0.20;;;;;;;;;;5014084;28;20049;-94
2023/09/09 08:47:29;;;;;;;0.30;0.30;;;;;;;;;;4997459;28;20128;-93
2023/09/09 08:49:59;;;;;;;0.33;0.33;;;;;;;;;;5014477;28;20057;-93
2023/09/09 08:52:26;;;;;;;0.30;0.30;;;;;;;;;;4997251;28;20084;-93
2023/09/09 08:54:52;;;;;;;0.25;0.25;;;;;;;;;;4996978;28;20051;-93
2023/09/09 08:57:18;;;;;;;0.40;0.40;;;;;;;;;;5013772;28;20121;-93
2023/09/09 08:59:44;;;;;;;0.30;0.30;;;;;;;;;;5013277;28;20458;-93
2023/09/09 09:02:11;;;;;;;0.20;0.20;;;;;;;;;;4997152;28;20053;-93
2023/09/09 09:04:38;;;;;;;0.30;0.30;;;;;;;;;;4997262;28;20497;-94
2023/09/09 09:07:05;;;;;;;0.20;0.20;;;;;;;;;;4997206;28;20042;-93
2023/09/09 09:09:31;;;;;;;0.30;0.30;;;;;;;;;;4997171;28;20132;-93
2023/09/09 09:12:05;;;;;;;0.30;0.30;;;;;;;;;;5013380;28;20104;-93
2023/09/09 09:14:31;;;;;;;0.30;0.30;;;;;;;;;;4997419;28;20081;-93
2023/09/09 09:16:57;;;;;;;0.47;0.47;;;;;;;;;;5013289;28;20081;-93
2023/09/09 09:19:27;;;;;;;0.20;0.20;;;;;;;;;;4996801;28;20050;-93
2023/09/09 09:21:53;;;;;;;0.30;0.30;;;;;;;;;;4997317;28;20371;-93
2023/09/09 09:24:25;;;;;;;0.38;0.38;;;;;;;;;;4996839;28;20049;-94
2023/09/09 09:26:51;;;;;;;0.20;0.20;;;;;;;;;;5014951;28;20540;-93
2023/09/09 09:29:17;;;;;;;0.20;0.20;;;;;;;;;;4996428;28;20493;-94
2023/09/09 09:31:44;;;;;;;0.40;0.30;;;;;;;;;;5013101;28;20107;-93
2023/09/09 09:34:10;;;;;;;0.38;0.38;;;;;;;;;;4996390;28;20132;-93
2023/09/09 09:36:36;;;;;;;0.47;0.47;;;;;;;;;;4996713;28;20501;-94
2023/09/09 09:39:10;;;;;;;0.30;0.30;;;;;;;;;;4996523;28;20128;-93
2023/09/09 09:41:39;;;;;;;0.30;0.30;;;;;;;;;;5012732;28;20034;-94
2023/09/09 09:44:17;;;;;;;0.35;0.35;;;;;;;;;;5012871;28;20038;-94
2023/09/09 09:46:43;;;;;;;0.40;0.40;;;;;;;;;;4996860;28;20420;-93
2023/09/09 09:49:11;;;;;;;0.50;0.50;;;;;;;;;;5013087;28;20045;-93
2023/09/09 09:51:44;;;;;;;0.22;0.22;;;;;;;;;;4997206;28;20412;-94
2023/09/09 09:54:10;;;;;;;0.73;0.32;;;;;;;;;;5012749;28;20038;-93
2023/09/09 09:56:36;;;;;;;0.20;0.20;;;;;;;;;;4996396;28;20377;-94
2023/09/09 09:59:03;;;;;;;0.30;0.30;;;;;;;;;;4996467;28;20072;-94
2023/09/09 10:01:30;;;;;;;0.60;0.60;;;;;;;;;;4996332;28;20073;-93
2023/09/09 10:03:57;;;;;;;0.90;0.47;;;;;;;;;;5012847;28;20049;-94
2023/09/09 10:06:28;;;;;;;0.50;0.45;;;;;;;;;;4996074;28;20037;-94
2023/09/09 10:08:54;;;;;;;;;;;;;;;;;;4996920;28;20042;-93
2023/09/09 10:11:20;;;;;;;0.30;0.30;;;;;;;;;;4996339;28;19947;-93
2023/09/09 10:13:46;;;;;;;0.40;0.40;;;;;;;;;;5012726;28;20111;-92
2023/09/09 10:16:12;;;;;;;0.32;0.32;;;;;;;;;;5012905;28;20045;-94
2023/09/09 10:18:38;;;;;;;0.30;0.30;;;;;;;;;;4996498;28;20405;-94
2023/09/09 10:21:06;;;;;;;0.20;0.20;;;;;;;;;;4995879;28;20141;-93
2023/09/09 10:23:32;;;;;;;0.30;0.30;;;;;;;;;;4996126;28;20118;-93
2023/09/09 10:25:59;;;;;;;0.40;0.40;;;;;;;;;;5012536;28;20045;-94
2023/09/09 10:28:25;;;;;;;0.30;0.30;;;;;;;;;;5012482;28;20049;-93
2023/09/09 10:30:54;;;;;;;0.30;0.30;;;;;;;;;;4996090;28;20063;-93
2023/09/09 10:33:20;;;;;;;0.50;0.50;;;;;;;;;;4996122;28;20200;-94
2023/09/09 10:35:49;;;;;;;0.30;0.30;;;;;;;;;;4997488;28;20141;-93
2023/09/09 10:38:15;;;;;;;0.30;0.30;;;;;;;;;;4996131;28;20045;-94
2023/09/09 10:40:41;;;;;;;0.40;0.40;;;;;;;;;;5012652;28;20041;-94
2023/09/09 10:43:07;;;;;;;0.75;0.75;;;;;;;;;;4996482;28;20374;-93
2023/09/09 10:45:35;;;;;;;0.30;0.30;;;;;;;;;;4996323;28;20069;-93
2023/09/09 10:48:02;;;;;;;0.30;0.30;;;;;;;;;;5012181;28;20132;-93
2023/09/09 10:50:38;;;;;;;0.35;0.35;;;;;;;;;;4995620;28;20117;-94
2023/09/09 10:53:23;;;;;;;0.30;0.30;;;;;;;;;;5012615;28;20092;-93
2023/09/09 10:55:53;;;;;;;0.30;0.30;;;;;;;;;;4995847;28;20073;-93
2023/09/09 10:58:19;;;;;;;0.30;0.30;;;;;;;;;;5012091;28;20060;-93
2023/09/09 11:00:46;;;;;;;0.38;0.38;;;;;;;;;;5012376;28;20094;-93
2023/09/09 11:03:13;;;;;;;0.20;0.20;;;;;;;;;;5012143;28;20108;-93
2023/09/09 11:05:59;;;;;;;0.20;0.20;;;;;;;;;;4996009;28;20038;-93
2023/09/09 11:08:35;;;;;;;0.40;0.40;;;;;;;;;;4996584;28;20103;-93
2023/09/09 11:11:17;;;;;;;0.30;0.30;;;;;;;;;;4995762;28;20042;-93
2023/09/09 11:13:43;;;;;;;0.20;0.20;;;;;;;;;;4995546;28;20132;-93
2023/09/09 11:16:25;;;;;;;0.30;0.30;;;;;;;;;;5012032;28;20037;-93
2023/09/09 11:18:52;;;;;;;0.20;0.20;;;;;;;;;;5016782;28;20054;-93
2023/09/09 11:21:23;;;;;;;0.20;0.20;;;;;;;;;;4999604;28;20100;-93
2023/09/09 11:23:52;;;;;;;0.30;0.30;;;;;;;;;;4999446;28;20077;-93
2023/09/09 11:26:18;;;;;;;0.30;0.30;;;;;;;;;;4999491;28;20076;-93
2023/09/09 11:28:45;;;;;;;1.85;0.60;;;;;;;;;;5015820;28;20149;-93
2023/09/09 11:31:12;;;;;;;0.40;0.40;;;;;;;;;;4999523;28;20054;-93
2023/09/09 11:33:38;;;;;;;0.28;0.28;;;;;;;;;;5015448;28;20398;-93
2023/09/09 11:36:04;;;;;;;0.30;0.30;;;;;;;;;;4998813;28;20046;-94
2023/09/09 11:38:34;;;;;;;0.30;0.30;;;;;;;;;;4999306;28;20055;-93
2023/09/09 11:41:00;;;;;;;0.30;0.30;;;;;;;;;;4999745;28;20056;-93
2023/09/09 11:43:26;;;;;;;0.40;0.40;;;;;;;;;;5016798;28;20109;-93
2023/09/09 11:45:52;;;;;;;0.40;0.40;;;;;;;;;;4999387;28;20460;-92
2023/09/09 11:48:18;;;;;;;0.30;0.30;;;;;;;;;;4999257;28;20397;-91
2023/09/09 11:50:45;;;;;;;0.20;0.20;;;;;;;;;;5015552;28;20042;-94
2023/09/09 11:53:12;;;;;;;0.40;0.40;;;;;;;;;;5015570;28;20048;-93
2023/09/09 11:55:38;;;;;;;0.40;0.40;;;;;;;;;;4998855;28;20206;-94
2023/09/09 11:58:04;;;;;;;0.20;0.20;;;;;;;;;;4999102;28;20099;-93
2023/09/09 12:00:30;;;;;;;0.30;0.30;;;;;;;;;;5015103;28;20045;-93
2023/09/09 12:02:56;;;;;;;0.45;0.45;;;;;;;;;;5015802;28;20038;-93
2023/09/09 12:05:27;;;;;;;0.40;0.38;;;;;;;;;;4998870;28;20041;-92
2023/09/09 12:07:56;;;;;;;0.20;0.20;;;;;;;;;;4998390;28;20128;-92
2023/09/09 12:10:22;;;;;;;0.60;0.55;;;;;;;;;;4998761;28;20400;-93
2023/09/09 12:12:48;;;;;;;0.20;0.20;;;;;;;;;;4999213;28;20515;-93
2023/09/09 12:15:14;;;;;;;0.20;0.20;;;;;;;;;;4998778;28;20085;-92
2023/09/09 12:17:40;;;;;;;0.20;0.20;;;;;;;;;;4998515;28;20095;-91
2023/09/09 12:20:10;;;;;;;0.20;0.20;;;;;;;;;;4997516;28;20053;-92
2023/09/09 12:22:47;;;;;;;0.30;0.30;;;;;;;;;;4998737;28;20042;-93
2023/09/09 12:25:30;;;;;;;0.20;0.20;;;;;;;;;;5014726;28;20061;-92
2023/09/09 12:27:56;;;;;;;0.20;0.20;;;;;;;;;;5031049;28;20038;-93
2023/09/09 12:30:37;;;;;;;0.30;0.30;;;;;;;;;;4998123;28;20044;-93
2023/09/09 12:33:06;;;;;;;0.50;0.50;;;;;;;;;;5014995;28;20184;-93
2023/09/09 12:35:34;;;;;;;0.65;0.40;;;;;;;;;;4999380;28;20042;-91
2023/09/09 12:38:00;;;;;;;0.28;0.28;;;;;;;;;;4998574;28;20050;-93
2023/09/09 12:40:27;;;;;;;0.30;0.30;;;;;;;;;;4998988;28;20061;-92
2023/09/09 12:42:58;;;;;;;0.30;0.22;;;;;;;;;;5014961;28;20176;-93
2023/09/09 12:45:24;;;;;;;0.20;0.20;;;;;;;;;;5015777;28;20481;-93
2023/09/09 12:47:51;;;;;;;0.30;0.30;;;;;;;;;;4998140;28;20045;-93
2023/09/09 12:50:17;;;;;;;0.32;0.32;;;;;;;;;;4998117;28;20050;-93
2023/09/09 12:52:44;;;;;;;0.30;0.30;;;;;;;;;;4998679;28;20096;-93
2023/09/09 12:55:10;;;;;;;0.20;0.20;;;;;;;;;;5014289;28;20124;-92
2023/09/09 12:57:36;;;;;;;0.30;0.30;;;;;;;;;;4997862;28;20042;-93
2023/09/09 13:00:04;;;;;;;0.38;0.38;;;;;;;;;;4997923;28;20042;-94
2023/09/09 13:02:30;;;;;;;0.30;0.30;;;;;;;;;;4998054;28;20041;-94
2023/09/09 13:04:56;;;;;;;0.25;0.25;;;;;;;;;;4997509;28;20113;-92
2023/09/09 13:07:22;;;;;;;0.30;0.30;;;;;;;;;;5014147;28;20053;-92
2023/09/09 13:09:48;;;;;;;0.30;0.30;;;;;;;;;;4997793;28;20046;-93
2023/09/09 13:12:14;;;;;;;0.35;0.35;;;;;;;;;;5015478;28;20045;-92
2023/09/09 13:14:40;;;;;;;0.20;0.20;;;;;;;;;;5014192;28;20049;-92
2023/09/09 13:17:06;;;;;;;0.40;0.30;;;;;;;;;;5013837;28;20041;-93
2023/09/09 13:19:32;;;;;;;0.20;0.20;;;;;;;;;;5015097;28;20069;-93
2023/09/09 13:22:00;;;;;;;0.30;0.30;;;;;;;;;;4997201;28;20042;-94
2023/09/09 13:24:26;;;;;;;0.30;0.30;;;;;;;;;;4997358;28;20149;-92
2023/09/09 13:26:52;;;;;;;0.30;0.30;;;;;;;;;;5013670;28;20042;-93
2023/09/09 13:29:18;;;;;;;0.20;0.20;;;;;;;;;;4997074;28;20554;-94
2023/09/09 13:31:44;;;;;;;0.20;0.20;;;;;;;;;;5013525;28;20049;-94
2023/09/09 13:34:10;;;;;;;0.30;0.30;;;;;;;;;;4997509;28;20041;-93
2023/09/09 13:36:36;;;;;;;0.30;0.30;;;;;;;;;;5014579;28;20515;-94
2023/09/09 13:39:02;;;;;;;0.40;0.40;;;;;;;;;;5013162;28;20116;-93
2023/09/09 13:41:29;;;;;;;0.20;0.20;;;;;;;;;;4997068;28;20045;-95
2023/09/09 13:43:55;;;;;;;0.20;0.20;;;;;;;;;;4997190;28;20146;-93
2023/09/09 13:46:21;;;;;;;0.20;0.20;;;;;;;;;;4996837;28;20033;-93
2023/09/09 13:48:48;;;;;;;0.20;0.20;;;;;;;;;;4996989;28;20049;-93
2023/09/09 13:51:14;;;;;;;0.40;0.40;;;;;;;;;;5014300;28;20038;-92
2023/09/09 13:53:40;;;;;;;0.20;0.20;;;;;;;;;;5012989;28;20037;-93
2023/09/09 13:56:06;;;;;;;0.70;0.70;;;;;;;;;;5012932;28;20050;-93
2023/09/09 13:58:32;;;;;;;0.47;0.47;;;;;;;;;;4995977;28;20041;-92
2023/09/09 14:00:58;;;;;;;0.30;0.30;;;;;;;;;;4996102;28;20069;-93
2023/09/09 14:03:24;;;;;;;0.20;0.20;;;;;;;;;;4996889;28;20440;-92
2023/09/09 14:05:50;;;;;;;0.20;0.20;;;;;;;;;;5013016;28;20120;-94
2023/09/09 14:08:16;;;;;;;0.30;0.30;;;;;;;;;;4996446;28;20073;-93
2023/09/09 14:10:42;;;;;;;0.20;0.20;;;;;;;;;;5012530;28;20383;-93
2023/09/09 14:13:08;;;;;;;0.20;0.20;;;;;;;;;;5012741;28;20044;-93
2023/09/09 14:15:34;;;;;;;0.28;0.28;;;;;;;;;;4995947;28;20038;-93
2023/09/09 14:18:00;;;;;;;0.20;0.20;;;;;;;;;;4996157;28;20045;-94
2023/09/09 14:20:26;;;;;;;0.20;0.20;;;;;;;;;;4996152;28;20391;-93
2023/09/09 14:22:52;;;;;;;0.20;0.20;;;;;;;;;;5012751;28;20408;-93
2023/09/09 14:25:18;;;;;;;0.30;0.30;;;;;;;;;;4996061;28;20042;-92
2023/09/09 14:27:44;;;;;;;0.30;0.30;;;;;;;;;;4996335;28;20039;-93
2023/09/09 14:30:10;;;;;;;0.20;0.20;;;;;;;;;;5012489;28;20421;-93
2023/09/09 14:32:36;;;;;;;0.20;0.20;;;;;;;;;;4996146;28;20034;-93
2023/09/09 14:35:03;;;;;;;0.20;0.20;;;;;;;;;;4996100;28;20121;-92
2023/09/09 14:37:29;;;;;;;0.20;0.20;;;;;;;;;;4996461;28;20095;-93
2023/09/09 14:39:55;;;;;;;0.20;0.20;;;;;;;;;;5011810;28;20041;-93
2023/09/09 14:42:21;;;;;;;0.20;0.20;;;;;;;;;;5012519;28;20190;-93